createdAt,value
2018-11-26T00:00:51.055Z,6.30
2018-11-26T00:05:54.053Z,6.40
2018-11-26T00:12:02.840Z,6.50
2018-11-26T00:17:05.857Z,6.50
2018-11-26T00:22:08.803Z,6.60
2018-11-26T00:27:11.755Z,6.70
2018-11-26T00:32:14.638Z,6.70
2018-11-26T00:37:17.525Z,6.70
2018-11-26T00:42:20.420Z,6.70
2018-11-26T00:47:23.364Z,6.80
2018-11-26T00:52:26.299Z,6.80
2018-11-26T00:57:29.251Z,6.80
2018-11-26T01:02:32.188Z,6.80
2018-11-26T01:07:35.130Z,6.80
2018-11-26T01:12:38.157Z,6.70
2018-11-26T01:17:41.087Z,6.80
2018-11-26T01:22:43.968Z,6.80
2018-11-26T01:27:46.904Z,6.80
2018-11-26T01:32:49.833Z,6.80
2018-11-26T01:37:52.761Z,6.80
2018-11-26T01:42:55.745Z,6.80
2018-11-26T01:47:58.755Z,6.80
2018-11-26T01:53:01.953Z,6.70
2018-11-26T01:58:04.966Z,6.70
2018-11-26T02:03:07.920Z,6.70
2018-11-26T02:08:10.856Z,6.60
2018-11-26T02:13:13.810Z,6.60
2018-11-26T02:18:16.800Z,6.70
2018-11-26T02:23:19.718Z,6.70
2018-11-26T02:28:22.630Z,6.70
2018-11-26T02:33:25.586Z,6.70
2018-11-26T02:38:28.474Z,6.70
2018-11-26T02:43:31.460Z,6.70
2018-11-26T02:48:34.336Z,6.80
2018-11-26T02:53:37.232Z,6.80
2018-11-26T02:58:40.140Z,6.80
2018-11-26T03:03:43.089Z,6.80
2018-11-26T03:08:46.032Z,6.80
2018-11-26T03:13:48.926Z,6.80
2018-11-26T03:18:51.866Z,6.80
2018-11-26T03:23:54.788Z,6.70
2018-11-26T03:28:57.733Z,6.60
2018-11-26T03:34:00.624Z,6.60
2018-11-26T03:39:04.608Z,6.60
2018-11-26T03:44:07.605Z,6.70
2018-11-26T03:49:10.522Z,6.70
2018-11-26T03:54:13.488Z,6.70
2018-11-26T03:59:16.436Z,6.70
2018-11-26T04:04:19.399Z,6.70
2018-11-26T04:09:22.317Z,6.70
2018-11-26T04:14:25.239Z,6.70
2018-11-26T04:19:28.189Z,6.60
2018-11-26T04:24:31.083Z,6.60
2018-11-26T04:29:34.037Z,6.60
2018-11-26T04:34:36.950Z,6.50
2018-11-26T04:39:39.881Z,6.50
2018-11-26T04:44:42.809Z,6.40
2018-11-26T04:49:45.733Z,6.40
2018-11-26T04:54:48.711Z,6.40
2018-11-26T04:59:51.659Z,6.40
2018-11-26T05:04:54.581Z,6.30
2018-11-26T05:09:57.557Z,6.30
2018-11-26T05:15:00.573Z,6.20
2018-11-26T05:20:06.716Z,6.00
2018-11-26T05:25:10.638Z,5.90
2018-11-26T05:30:13.759Z,5.80
2018-11-26T05:35:16.693Z,5.70
2018-11-26T05:40:20.113Z,5.70
2018-11-26T05:45:23.049Z,5.80
2018-11-26T05:50:25.995Z,5.80
2018-11-26T05:55:28.947Z,5.90
2018-11-26T06:00:33.301Z,5.90
2018-11-26T06:05:36.230Z,5.90
2018-11-26T06:10:39.205Z,5.90
2018-11-26T06:15:42.166Z,5.90
2018-11-26T06:20:45.161Z,5.90
2018-11-26T06:25:48.089Z,5.90
2018-11-26T06:30:51.196Z,5.90
2018-11-26T06:35:54.158Z,5.90
2018-11-26T06:40:57.752Z,6.00
2018-11-26T06:46:00.632Z,6.00
2018-11-26T06:51:04.053Z,6.00
2018-11-26T06:56:07.048Z,6.00
2018-11-26T07:01:10.014Z,6.10
2018-11-26T07:06:12.906Z,6.10
2018-11-26T07:11:15.821Z,6.10
2018-11-26T07:16:18.771Z,6.10
2018-11-26T07:21:21.729Z,6.10
2018-11-26T07:26:24.755Z,6.10
2018-11-26T07:31:27.745Z,6.10
2018-11-26T07:36:30.764Z,6.10
2018-11-26T07:41:33.697Z,6.20
2018-11-26T07:46:36.684Z,6.20
2018-11-26T07:51:39.583Z,6.30
2018-11-26T07:56:42.592Z,6.40
2018-11-26T08:01:45.509Z,6.40
2018-11-26T08:06:48.467Z,6.40
2018-11-26T08:11:51.428Z,6.40
2018-11-26T08:16:54.421Z,6.40
2018-11-26T08:21:57.376Z,6.40
2018-11-26T08:27:00.300Z,6.40
2018-11-26T08:32:03.242Z,6.50
2018-11-26T08:38:11.913Z,6.50
2018-11-26T08:43:24.421Z,6.50
2018-11-26T08:48:28.374Z,6.60
2018-11-26T08:53:31.361Z,6.60
2018-11-26T08:58:34.315Z,6.60
2018-11-26T09:03:42.788Z,6.70
2018-11-26T09:08:45.761Z,6.70
2018-11-26T09:13:48.768Z,6.80
2018-11-26T09:18:51.881Z,6.90
2018-11-26T09:23:55.345Z,7.00
2018-11-26T09:28:58.269Z,7.10
2018-11-26T09:34:01.263Z,7.20
2018-11-26T09:39:10.033Z,7.20
2018-11-26T09:44:13.017Z,7.30
2018-11-26T09:49:15.982Z,7.40
2018-11-26T09:54:25.789Z,7.50
2018-11-26T09:59:21.846Z,7.60
2018-11-26T10:04:24.806Z,7.60
2018-11-26T10:09:27.776Z,7.70
2018-11-26T10:14:30.764Z,7.80
2018-11-26T10:19:33.725Z,7.80
2018-11-26T10:24:36.707Z,7.80
2018-11-26T10:29:39.676Z,7.90
2018-11-26T10:34:42.714Z,8.00
2018-11-26T10:39:45.654Z,8.00
2018-11-26T10:44:48.588Z,8.10
2018-11-26T10:49:51.461Z,8.10
2018-11-26T10:54:54.424Z,8.20
2018-11-26T10:59:57.479Z,8.20
2018-11-26T11:05:00.407Z,8.30
2018-11-26T11:10:05.702Z,8.50
2018-11-26T11:15:11.153Z,8.60
2018-11-26T11:20:24.904Z,8.50
2018-11-26T11:25:27.855Z,8.40
2018-11-26T11:30:30.822Z,8.30
2018-11-26T11:35:34.307Z,8.40
2018-11-26T11:40:37.275Z,8.30
2018-11-26T11:45:40.253Z,8.30
2018-11-26T11:50:43.206Z,8.30
2018-11-26T11:55:46.121Z,8.20
2018-11-26T12:00:49.538Z,8.20
2018-11-26T12:05:52.499Z,8.10
2018-11-26T12:10:55.450Z,8.10
2018-11-26T12:15:58.436Z,8.10
2018-11-26T12:21:01.382Z,8.10
2018-11-26T12:26:05.095Z,8.10
2018-11-26T12:31:08.042Z,8.10
2018-11-26T12:36:11.036Z,8.10
2018-11-26T12:41:13.989Z,8.10
2018-11-26T12:46:17.009Z,8.00
2018-11-26T12:51:19.985Z,8.00
2018-11-26T12:56:22.846Z,8.00
2018-11-26T13:01:25.788Z,8.00
2018-11-26T13:06:28.862Z,8.00
2018-11-26T13:11:31.918Z,8.00
2018-11-26T13:16:34.909Z,8.00
2018-11-26T13:21:37.846Z,8.10
2018-11-26T13:26:40.782Z,8.00
2018-11-26T13:31:43.752Z,7.90
2018-11-26T13:36:46.689Z,7.90
2018-11-26T13:41:49.598Z,7.90
2018-11-26T13:46:53.130Z,7.90
2018-11-26T13:51:56.213Z,7.80
2018-11-26T13:56:59.248Z,7.80
2018-11-26T14:02:02.217Z,7.80
2018-11-26T14:07:05.425Z,7.80
2018-11-26T14:12:08.448Z,7.80
2018-11-26T14:17:11.473Z,7.80
2018-11-26T14:22:14.401Z,7.70
2018-11-26T14:27:17.489Z,7.80
2018-11-26T14:32:20.611Z,7.70
2018-11-26T14:37:23.633Z,7.70
2018-11-26T14:42:26.599Z,7.70
2018-11-26T14:47:29.742Z,7.60
2018-11-26T14:52:33.604Z,7.60
2018-11-26T14:57:36.589Z,7.60
2018-11-26T15:02:39.757Z,7.50
2018-11-26T15:07:42.807Z,7.50
2018-11-26T15:12:46.748Z,7.40
2018-11-26T15:17:49.859Z,7.40
2018-11-26T15:22:54.489Z,7.40
2018-11-26T15:27:59.884Z,7.40
2018-11-26T15:33:02.834Z,7.30
2018-11-26T15:38:06.065Z,7.30
2018-11-26T15:43:09.038Z,7.30
2018-11-26T15:48:12.907Z,7.20
2018-11-26T15:53:15.958Z,7.20
2018-11-26T15:58:23.578Z,7.10
2018-11-26T16:03:21.834Z,7.00
2018-11-26T16:08:24.798Z,7.00
2018-11-26T16:13:27.861Z,6.90
2018-11-26T16:18:30.809Z,6.80
2018-11-26T16:23:33.793Z,6.70
2018-11-26T16:28:36.794Z,6.70
2018-11-26T16:33:39.711Z,6.80
2018-11-26T16:38:42.647Z,6.70
2018-11-26T16:43:45.646Z,6.70
2018-11-26T16:48:48.615Z,6.70
2018-11-26T16:53:51.618Z,6.60
2018-11-26T16:58:55.227Z,6.50
2018-11-26T17:03:58.254Z,6.50
2018-11-26T17:09:01.164Z,6.50
2018-11-26T17:14:04.613Z,6.50
2018-11-26T17:19:07.686Z,6.50
2018-11-26T17:24:10.709Z,6.40
2018-11-26T17:29:13.635Z,6.40
2018-11-26T17:34:16.642Z,6.40
2018-11-26T17:39:19.545Z,6.40
2018-11-26T17:44:22.656Z,6.30
2018-11-26T17:49:25.618Z,6.40
2018-11-26T17:54:28.596Z,6.30
2018-11-26T17:59:31.590Z,6.30
2018-11-26T18:04:34.515Z,6.20
2018-11-26T18:09:37.472Z,6.30
2018-11-26T18:14:40.539Z,6.20
2018-11-26T18:19:43.514Z,6.20
2018-11-26T18:24:46.618Z,6.20
2018-11-26T18:29:49.649Z,6.20
2018-11-26T18:34:52.691Z,6.20
2018-11-26T18:39:55.659Z,6.10
2018-11-26T18:44:58.624Z,6.10
2018-11-26T18:50:01.618Z,6.10
2018-11-26T18:55:05.944Z,6.10
2018-11-26T19:00:16.281Z,6.10
2018-11-26T19:05:19.852Z,6.00
2018-11-26T19:10:28.498Z,6.00
2018-11-26T19:15:34.212Z,6.00
2018-11-26T19:20:37.306Z,6.00
2018-11-26T19:25:40.358Z,5.90
2018-11-26T19:30:43.365Z,5.90
2018-11-26T19:35:46.364Z,5.90
2018-11-26T19:40:49.586Z,5.90
2018-11-26T19:45:52.660Z,5.90
2018-11-26T19:50:55.769Z,5.90
2018-11-26T19:55:58.716Z,5.90
2018-11-26T20:01:01.756Z,5.80
2018-11-26T20:06:12.998Z,5.70
2018-11-26T20:11:16.149Z,5.70
2018-11-26T20:16:25.729Z,5.60
2018-11-26T20:21:28.689Z,5.60
2018-11-26T20:26:31.652Z,5.60
2018-11-26T20:31:34.614Z,5.60
2018-11-26T20:36:37.705Z,5.60
2018-11-26T20:41:40.679Z,5.50
2018-11-26T20:46:49.021Z,5.40
2018-11-26T20:51:46.677Z,5.40
2018-11-26T20:56:49.579Z,5.40
2018-11-26T21:01:52.598Z,5.30
2018-11-26T21:06:55.637Z,5.30
2018-11-26T21:11:58.576Z,5.30
2018-11-26T21:17:02.035Z,5.20
2018-11-26T21:22:05.385Z,5.20
2018-11-26T21:27:08.334Z,5.10
2018-11-26T21:32:11.277Z,5.10
2018-11-26T21:37:14.270Z,5.00
2018-11-26T21:42:17.287Z,5.00
2018-11-26T21:47:20.204Z,5.00
2018-11-26T21:52:23.362Z,4.90
2018-11-26T21:57:26.325Z,4.80
2018-11-26T22:02:29.266Z,4.90
2018-11-26T22:07:32.289Z,4.80
2018-11-26T22:12:35.309Z,4.80
2018-11-26T22:17:39.139Z,4.80
2018-11-26T22:22:42.128Z,4.80
2018-11-26T22:27:45.228Z,4.80
2018-11-26T22:32:48.074Z,4.80
2018-11-26T22:37:51.057Z,4.80
2018-11-26T22:42:54.169Z,4.80
2018-11-26T22:48:07.212Z,4.70
2018-11-26T22:53:10.280Z,4.70
2018-11-26T22:58:14.488Z,4.70
2018-11-26T23:03:20.601Z,4.70
2018-11-26T23:08:23.673Z,4.70
2018-11-26T23:13:26.624Z,4.70
2018-11-26T23:18:29.545Z,4.70
2018-11-26T23:23:32.496Z,4.70
2018-11-26T23:28:35.484Z,4.70
2018-11-26T23:33:38.488Z,4.60
2018-11-26T23:38:41.481Z,4.60
2018-11-26T23:43:44.418Z,4.60
2018-11-26T23:48:47.420Z,4.60
2018-11-26T23:53:50.358Z,4.60
2018-11-26T23:58:53.205Z,4.60
